Time;durP1;ratioP1;P1;durP2;ratioP2;P2;SDS_P1;SDS_P2;PMS_P1;PMS_P2;Temp;Humidity;BMP_temperature;BMP_pressure;BME280_temperature;BME280_humidity;BME280_pressure;Samples;Min_cycle;Max_cycle;Signal;HPM_P1;HPM_P2
2022/12/17 13:06:52;;;;;;;19.27;9.60;;;0.40;90.20;;;;;;5134616;28;20054;-74
2022/12/17 13:09:20;;;;;;;25.25;7.70;;;0.40;90.40;;;;;;5133949;28;20035;-74
2022/12/17 13:12:15;;;;;;;21.27;10.43;;;0.40;90.20;;;;;;5133699;28;20015;-74
2022/12/17 13:14:41;;;;;;;30.55;10.45;;;0.30;90.30;;;;;;5134702;28;20016;-75
2022/12/17 13:17:29;;;;;;;28.63;9.90;;;0.40;90.40;;;;;;5134608;28;20055;-75
2022/12/17 13:19:55;;;;;;;38.80;14.80;;;0.40;90.20;;;;;;5134479;28;20028;-74
2022/12/17 13:22:20;;;;;;;22.35;8.55;;;0.40;90.20;;;;;;5134438;28;20082;-75
2022/12/17 13:24:49;;;;;;;24.27;8.23;;;0.50;90.20;;;;;;5133430;28;20032;-74
2022/12/17 13:27:32;;;;;;;36.70;13.90;;;0.40;90.00;;;;;;5134363;28;20036;-75
2022/12/17 13:30:16;;;;;;;30.58;11.55;;;0.40;90.00;;;;;;5134486;28;20103;-75
2022/12/17 13:33:08;;;;;;;35.10;11.43;;;0.50;90.10;;;;;;5134524;28;20075;-75
2022/12/17 13:35:53;;;;;;;22.50;9.45;;;0.40;89.90;;;;;;5133343;28;20038;-75
2022/12/17 13:38:40;;;;;;;28.08;9.18;;;0.40;89.60;;;;;;5134347;28;20016;-75
2022/12/17 13:41:09;;;;;;;25.05;10.65;;;0.40;89.60;;;;;;5133995;28;20027;-75
2022/12/17 13:43:45;;;;;;;31.08;11.38;;;0.40;89.80;;;;;;5134212;28;20024;-75
2022/12/17 13:46:40;;;;;;;26.60;9.60;;;0.40;89.90;;;;;;5134104;28;20032;-74
2022/12/17 13:49:25;;;;;;;15.60;7.45;;;0.40;89.90;;;;;;5133148;28;20087;-75
2022/12/17 13:52:03;;;;;;;24.40;9.30;;;0.40;89.90;;;;;;5134134;28;20023;-75
2022/12/17 13:54:29;;;;;;;33.33;13.15;;;0.40;89.40;;;;;;5134094;28;20019;-75
2022/12/17 13:57:04;;;;;;;22.88;8.80;;;0.40;89.90;;;;;;5133138;28;20019;-75
2022/12/17 13:59:30;;;;;;;21.95;8.93;;;0.40;89.40;;;;;;5133088;28;20045;-75
2022/12/17 14:01:56;;;;;;;40.10;15.02;;;0.30;89.60;;;;;;5133124;28;20107;-75
2022/12/17 14:04:27;;;;;;;31.52;12.73;;;0.40;89.80;;;;;;5133960;28;20034;-75
2022/12/17 14:06:56;;;;;;;29.67;12.27;;;0.30;89.70;;;;;;5133733;28;20052;-75
2022/12/17 14:09:28;;;;;;;18.77;9.02;;;0.30;90.00;;;;;;5133838;28;20262;-75
2022/12/17 14:14:42;;;;;;;23.00;9.50;;;0.30;89.80;;;;;;5134153;28;20081;-75
2022/12/17 14:17:39;;;;;;;32.33;13.05;;;0.30;90.10;;;;;;5133922;28;20047;-75
2022/12/17 14:20:10;;;;;;;38.10;14.68;;;0.30;90.10;;;;;;5121884;28;20032;-75
2022/12/17 14:22:36;;;;;;;39.45;14.48;;;0.30;90.00;;;;;;5133800;28;20043;-75
2022/12/17 14:25:03;;;;;;;35.10;13.40;;;0.30;90.00;;;;;;5132776;28;20027;-75
2022/12/17 14:27:33;;;;;;;45.08;14.52;;;0.30;90.10;;;;;;5132679;28;20024;-75
2022/12/17 14:29:58;;;;;;;39.25;16.42;;;0.40;90.10;;;;;;5132701;28;20020;-75
2022/12/17 14:32:34;;;;;;;19.55;8.75;;;0.40;90.00;;;;;;5133818;28;20039;-75
2022/12/17 14:34:59;;;;;;;40.85;14.80;;;0.50;89.60;;;;;;5133747;28;20016;-75
2022/12/17 14:37:26;;;;;;;34.75;12.77;;;0.40;89.20;;;;;;5133648;28;20051;-75
2022/12/17 14:39:57;;;;;;;30.42;11.63;;;0.40;89.60;;;;;;5133621;28;20106;-75
2022/12/17 14:42:24;;;;;;;30.73;11.18;;;0.30;89.80;;;;;;5132546;28;20023;-75
2022/12/17 14:45:05;;;;;;;25.38;9.93;;;0.40;90.00;;;;;;5133737;28;20043;-75
2022/12/17 14:47:32;;;;;;;35.80;13.50;;;0.40;89.60;;;;;;5132521;28;20031;-75
2022/12/17 14:50:15;;;;;;;39.50;12.32;;;0.30;89.80;;;;;;5133509;28;20107;-75
2022/12/17 14:52:45;;;;;;;26.45;9.38;;;0.40;89.70;;;;;;5133841;28;20041;-75
2022/12/17 14:55:34;;;;;;;15.30;8.02;;;0.40;89.60;;;;;;5137425;28;20016;-75
2022/12/17 14:58:12;;;;;;;27.33;10.70;;;0.30;89.50;;;;;;5137531;27;20023;-75
2022/12/17 15:00:41;;;;;;;21.77;8.80;;;0.30;89.10;;;;;;5137303;28;20049;-75
2022/12/17 15:03:21;;;;;;;29.05;9.82;;;0.30;89.30;;;;;;5137423;28;20015;-75
2022/12/17 15:06:12;;;;;;;27.95;10.80;;;0.20;89.50;;;;;;5137157;28;20031;-75
2022/12/17 15:08:45;;;;;;;26.05;10.55;;;0.20;89.40;;;;;;5125314;28;20111;-75
2022/12/17 15:11:13;;;;;;;32.38;11.13;;;0.10;89.50;;;;;;5137226;27;20022;-75
2022/12/17 15:13:39;;;;;;;27.77;11.65;;;0.20;89.60;;;;;;5137088;28;20046;-75
2022/12/17 15:16:06;;;;;;;28.73;10.02;;;0.10;89.50;;;;;;5137045;28;20031;-75
2022/12/17 15:18:31;;;;;;;27.02;10.90;;;0.10;89.80;;;;;;5136920;28;20402;-75
2022/12/17 15:20:58;;;;;;;33.85;11.70;;;0.00;89.90;;;;;;5136976;28;20023;-75
2022/12/17 15:23:24;;;;;;;35.13;12.05;;;0.10;89.80;;;;;;5136918;27;20038;-75
2022/12/17 15:25:51;;;;;;;17.70;6.57;;;0.00;90.20;;;;;;5135884;28;20024;-75
2022/12/17 15:28:18;;;;;;;40.40;14.82;;;0.00;90.10;;;;;;5135762;28;20024;-75
2022/12/17 15:30:45;;;;;;;36.90;12.57;;;0.00;89.70;;;;;;5136797;28;20031;-75
2022/12/17 15:33:12;;;;;;;31.83;9.73;;;0.00;89.80;;;;;;5136826;28;20019;-75
2022/12/17 15:35:38;;;;;;;15.00;6.90;;;0.00;89.70;;;;;;5135701;28;20023;-74
2022/12/17 15:38:05;;;;;;;32.72;12.23;;;0.00;89.70;;;;;;5136379;28;20065;-75
2022/12/17 15:40:30;;;;;;;37.80;12.57;;;-0.10;89.60;;;;;;5118538;28;20023;-75
2022/12/17 15:43:11;;;;;;;30.83;11.95;;;-0.10;89.70;;;;;;5135614;28;20114;-75
2022/12/17 15:45:42;;;;;;;44.38;14.85;;;-0.10;89.80;;;;;;5136653;28;20518;-75
2022/12/17 15:48:09;;;;;;;27.58;9.88;;;-0.20;89.40;;;;;;5136484;28;20031;-75
2022/12/17 15:50:36;;;;;;;32.85;13.07;;;-0.20;89.60;;;;;;5136362;28;20035;-75
2022/12/17 15:53:02;;;;;;;42.97;12.93;;;-0.20;90.20;;;;;;5136305;28;20016;-75
2022/12/17 15:55:28;;;;;;;36.17;13.57;;;-0.20;90.00;;;;;;5135182;28;20088;-75
2022/12/17 15:57:53;;;;;;;30.23;11.70;;;-0.20;89.80;;;;;;5136242;28;20083;-75
2022/12/17 16:00:19;;;;;;;43.13;13.82;;;-0.30;89.80;;;;;;5135243;28;20056;-75
2022/12/17 16:02:46;;;;;;;44.63;13.65;;;-0.30;90.00;;;;;;5136108;28;20054;-75
2022/12/17 16:05:12;;;;;;;42.97;13.75;;;-0.30;89.90;;;;;;5135010;28;20028;-75
2022/12/17 16:07:38;;;;;;;24.88;9.23;;;-0.30;90.00;;;;;;5135691;28;20055;-75
2022/12/17 16:10:05;;;;;;;40.90;14.43;;;-0.30;90.00;;;;;;5135103;28;20047;-75
2022/12/17 16:12:31;;;;;;;10.57;5.72;;;-0.40;90.00;;;;;;5135893;28;20032;-75
2022/12/17 16:14:57;;;;;;;32.60;10.32;;;-0.40;90.20;;;;;;5134856;28;20131;-75
2022/12/17 16:17:22;;;;;;;39.65;12.82;;;-0.40;90.20;;;;;;5135852;27;20035;-75
2022/12/17 16:19:48;;;;;;;17.05;7.65;;;-0.50;90.80;;;;;;5134800;28;20046;-75
2022/12/17 16:22:14;;;;;;;39.88;14.10;;;-0.50;90.60;;;;;;5135740;28;20035;-74
2022/12/17 16:24:39;;;;;;;17.00;7.63;;;-0.50;90.60;;;;;;5134772;28;20024;-75
2022/12/17 16:27:06;;;;;;;21.90;7.32;;;-0.50;90.60;;;;;;5134514;28;20503;-75
2022/12/17 16:29:31;;;;;;;23.63;9.55;;;-0.60;90.40;;;;;;5135575;28;20019;-75
2022/12/17 16:31:58;;;;;;;21.77;6.38;;;-0.70;90.50;;;;;;5117434;28;20047;-75
2022/12/17 16:34:24;;;;;;;29.23;9.48;;;-0.80;90.70;;;;;;5135497;28;20054;-75
2022/12/17 16:36:49;;;;;;;22.52;9.90;;;-0.80;91.00;;;;;;5135445;28;20410;-75
2022/12/17 16:39:17;;;;;;;24.27;9.65;;;-0.90;91.10;;;;;;5135397;28;20032;-75
2022/12/17 16:41:43;;;;;;;29.00;10.63;;;-0.90;91.20;;;;;;5135233;28;20039;-75
2022/12/17 16:44:09;;;;;;;28.13;9.73;;;-0.90;91.30;;;;;;5134372;28;20062;-75
2022/12/17 16:46:38;;;;;;;34.03;11.68;;;-0.90;91.30;;;;;;5135159;27;20051;-75
2022/12/17 16:49:18;;;;;;;19.30;6.53;;;-0.90;91.40;;;;;;5135215;28;20016;-75
2022/12/17 16:51:45;;;;;;;14.10;6.82;;;-0.90;91.40;;;;;;5135183;28;20030;-73
2022/12/17 16:54:14;;;;;;;24.23;10.25;;;-0.80;91.40;;;;;;5135077;28;20058;-74
2022/12/17 16:56:41;;;;;;;30.15;12.23;;;-0.80;91.40;;;;;;5133977;28;20024;-75
2022/12/17 16:59:08;;;;;;;30.67;10.43;;;-0.80;91.30;;;;;;5135018;28;20024;-75
2022/12/17 17:01:35;;;;;;;36.22;14.07;;;-0.80;91.20;;;;;;5133921;28;20096;-74
2022/12/17 17:04:00;;;;;;;17.48;5.82;;;-0.70;91.20;;;;;;5134888;27;20119;-73
2022/12/17 17:06:26;;;;;;;17.92;5.75;;;-0.90;91.10;;;;;;5134581;28;20056;-73
2022/12/17 17:08:52;;;;;;;27.42;10.93;;;-0.90;91.10;;;;;;5133715;28;20050;-74
2022/12/17 17:11:22;;;;;;;29.42;10.95;;;-0.90;91.20;;;;;;5133828;28;20050;-73
2022/12/17 17:13:50;;;;;;;13.45;6.03;;;-0.90;91.20;;;;;;5134780;28;20027;-74
2022/12/17 17:16:16;;;;;;;8.38;5.32;;;-0.90;91.10;;;;;;5133252;28;20028;-74
2022/12/17 17:18:42;;;;;;;17.73;6.53;;;-1.00;91.20;;;;;;5134616;28;20080;-74
2022/12/17 17:21:26;;;;;;;23.25;8.05;;;-1.10;91.10;;;;;;5134637;28;20035;-73
2022/12/17 17:24:02;;;;;;;39.30;13.60;;;-1.20;91.30;;;;;;5134606;28;20035;-74
2022/12/17 17:26:30;;;;;;;29.10;10.55;;;-1.20;91.40;;;;;;5134501;28;20066;-74
2022/12/17 17:28:56;;;;;;;30.58;9.10;;;-1.10;91.40;;;;;;5133524;28;20035;-74
2022/12/17 17:31:22;;;;;;;27.83;10.50;;;-1.10;91.30;;;;;;5134595;28;20024;-74
2022/12/17 17:33:49;;;;;;;33.58;11.57;;;-1.10;91.40;;;;;;5116465;28;20038;-73
2022/12/17 17:36:26;;;;;;;25.00;8.95;;;-1.10;91.40;;;;;;5133342;28;20122;-74
2022/12/17 17:38:53;;;;;;;24.17;8.75;;;-1.20;91.30;;;;;;5134382;28;20028;-73
2022/12/17 17:41:21;;;;;;;10.60;4.32;;;-1.20;91.30;;;;;;5134282;28;20057;-73
2022/12/17 17:43:51;;;;;;;14.75;6.00;;;-1.30;91.40;;;;;;5134196;28;20027;-73
2022/12/17 17:46:17;;;;;;;28.42;10.30;;;-1.40;91.70;;;;;;5134030;28;20032;-73
2022/12/17 17:48:45;;;;;;;36.03;11.60;;;-1.30;91.90;;;;;;5134192;28;20030;-73
2022/12/17 17:51:19;;;;;;;38.88;11.98;;;-1.30;91.80;;;;;;5133121;28;20095;-73
2022/12/17 17:53:50;;;;;;;20.02;7.57;;;-1.30;91.90;;;;;;5134182;28;20027;-74
2022/12/17 17:56:19;;;;;;;22.40;7.97;;;-1.30;91.80;;;;;;5134152;28;20106;-73
2022/12/17 17:58:47;;;;;;;30.55;10.25;;;-1.40;92.00;;;;;;5134059;28;20027;-73
2022/12/17 18:01:19;;;;;;;23.08;9.10;;;-1.40;92.00;;;;;;5134057;28;20024;-73
2022/12/17 18:03:45;;;;;;;29.45;9.57;;;-1.40;92.00;;;;;;5134052;28;20032;-73
2022/12/17 18:06:12;;;;;;;13.82;6.13;;;-1.40;92.10;;;;;;5132647;28;20084;-73
2022/12/17 18:08:38;;;;;;;19.20;8.18;;;-1.40;92.20;;;;;;5133922;28;20028;-76
2022/12/17 18:11:07;;;;;;;20.38;8.52;;;-1.50;92.30;;;;;;5116120;28;20023;-74
2022/12/17 18:16:18;;;;;;;24.10;7.75;;;-1.40;92.40;;;;;;5134068;28;20134;-73
2022/12/17 18:18:44;;;;;;;25.20;8.30;;;-1.50;92.30;;;;;;5133893;28;20027;-73
2022/12/17 18:21:12;;;;;;;7.82;4.93;;;-1.60;92.20;;;;;;5132984;28;20020;-73
2022/12/17 18:23:38;;;;;;;28.70;9.65;;;-1.60;92.20;;;;;;5132882;28;20054;-73
2022/12/17 18:26:06;;;;;;;16.33;6.35;;;-1.60;92.30;;;;;;5132722;28;20020;-73
2022/12/17 18:28:32;;;;;;;17.90;7.10;;;-1.60;92.30;;;;;;5134681;28;20032;-73
2022/12/17 18:31:03;;;;;;;21.05;8.23;;;-1.60;92.30;;;;;;5137938;28;20110;-73
2022/12/17 18:33:29;;;;;;;22.05;6.95;;;-1.70;92.50;;;;;;5137924;28;20035;-73
2022/12/17 18:35:54;;;;;;;8.63;4.55;;;-1.70;92.50;;;;;;5137804;28;20065;-73
2022/12/17 18:38:20;;;;;;;25.70;9.82;;;-1.60;92.60;;;;;;5137789;28;20027;-73
2022/12/17 18:40:46;;;;;;;16.63;7.32;;;-1.60;92.60;;;;;;5136720;28;20028;-73
2022/12/17 18:43:23;;;;;;;36.70;12.00;;;-1.60;92.60;;;;;;5137632;28;20027;-73
2022/12/17 18:45:52;;;;;;;26.25;9.60;;;-1.70;92.60;;;;;;5136714;28;20031;-73
2022/12/17 18:48:19;;;;;;;31.25;12.15;;;-1.60;92.50;;;;;;5137568;28;20020;-73
2022/12/17 18:50:44;;;;;;;38.38;12.75;;;-1.60;92.50;;;;;;5137507;28;20038;-73
2022/12/17 18:53:10;;;;;;;39.17;13.25;;;-1.40;92.50;;;;;;5136488;28;20043;-73
2022/12/17 18:55:39;;;;;;;43.03;12.55;;;-1.40;92.50;;;;;;5136413;28;20028;-73
2022/12/17 18:58:07;;;;;;;28.73;10.65;;;-1.30;92.30;;;;;;5119587;28;20031;-73
2022/12/17 19:00:33;;;;;;;20.77;7.90;;;-1.30;92.20;;;;;;5137353;28;20061;-73
2022/12/17 19:02:59;;;;;;;38.85;11.82;;;-1.30;92.10;;;;;;5137282;28;20035;-73
2022/12/17 19:05:24;;;;;;;9.02;5.03;;;-1.30;92.10;;;;;;5137354;28;20031;-73
2022/12/17 19:07:50;;;;;;;32.15;11.77;;;-1.40;92.10;;;;;;5136853;28;20051;-73
2022/12/17 19:10:15;;;;;;;13.80;6.22;;;-1.50;92.00;;;;;;5102196;28;20024;-73
2022/12/17 19:12:41;;;;;;;32.58;10.68;;;-1.50;92.10;;;;;;5137077;28;20045;-73
2022/12/17 19:15:07;;;;;;;39.20;9.82;;;-1.50;91.80;;;;;;5137049;28;20024;-73
2022/12/17 19:17:33;;;;;;;31.40;10.73;;;-1.50;91.70;;;;;;5137113;28;20053;-73
2022/12/17 19:19:58;;;;;;;8.00;3.60;;;-1.50;91.90;;;;;;5136972;28;20028;-73
2022/12/17 19:22:24;;;;;;;26.95;7.63;;;-1.60;91.70;;;;;;5136867;28;20101;-73
2022/12/17 19:24:49;;;;;;;25.92;9.20;;;-1.60;91.80;;;;;;5118776;28;20051;-73
2022/12/17 19:27:15;;;;;;;21.23;7.65;;;-1.60;91.90;;;;;;5136713;28;20040;-73
2022/12/17 19:29:41;;;;;;;10.57;4.57;;;-1.60;91.80;;;;;;5136719;28;20087;-74
2022/12/17 19:32:06;;;;;;;8.88;3.75;;;-1.70;91.60;;;;;;5136743;28;20030;-73
2022/12/17 19:34:33;;;;;;;29.55;10.65;;;-1.70;91.60;;;;;;5136647;28;20028;-73
2022/12/17 19:36:59;;;;;;;29.30;10.10;;;-1.80;91.70;;;;;;5136642;28;20020;-73
2022/12/17 19:39:25;;;;;;;34.20;9.20;;;-1.70;91.70;;;;;;5136083;28;20032;-73
2022/12/17 19:41:50;;;;;;;27.73;10.63;;;-1.70;91.80;;;;;;5136516;28;20034;-73
2022/12/17 19:44:16;;;;;;;20.80;7.78;;;-1.70;91.70;;;;;;5136553;28;20019;-73
2022/12/17 19:46:42;;;;;;;27.77;9.70;;;-1.60;91.70;;;;;;5136379;28;20028;-73
2022/12/17 19:49:13;;;;;;;45.60;11.77;;;-1.70;91.70;;;;;;5135354;28;20028;-73
2022/12/17 19:51:41;;;;;;;47.83;6.38;;;-1.60;91.70;;;;;;5136390;28;20490;-73
2022/12/17 19:54:07;;;;;;;23.27;9.70;;;-1.70;91.70;;;;;;5136249;28;20027;-73
2022/12/17 19:56:33;;;;;;;32.42;8.98;;;-1.60;91.90;;;;;;5136355;28;20031;-73
2022/12/17 19:59:06;;;;;;;30.17;11.07;;;-1.60;91.80;;;;;;5135197;28;20034;-73
2022/12/17 20:01:35;;;;;;;25.80;9.82;;;-1.60;91.80;;;;;;5136296;28;20024;-73
2022/12/17 20:04:00;;;;;;;29.23;9.45;;;-1.60;92.10;;;;;;5136150;28;20024;-73
2022/12/17 20:06:29;;;;;;;27.65;10.27;;;-1.60;91.90;;;;;;5134797;28;20071;-73
2022/12/17 20:08:57;;;;;;;22.58;7.43;;;-1.60;91.80;;;;;;5136055;28;20019;-73
2022/12/17 20:11:32;;;;;;;12.70;7.00;;;-1.60;91.80;;;;;;5134963;28;20047;-73
2022/12/17 20:14:13;;;;;;;33.15;11.32;;;-1.60;91.50;;;;;;5136032;28;20459;-73
2022/12/17 20:16:48;;;;;;;30.45;10.60;;;-1.70;91.50;;;;;;5136022;28;20034;-73
2022/12/17 20:19:16;;;;;;;15.15;6.63;;;-1.70;91.50;;;;;;5134945;28;20026;-73
2022/12/17 20:21:42;;;;;;;19.40;6.65;;;-1.60;91.90;;;;;;5135810;28;20069;-73
2022/12/17 20:24:10;;;;;;;13.60;4.40;;;-1.70;91.60;;;;;;5135746;28;20028;-73
2022/12/17 20:26:35;;;;;;;25.42;10.07;;;-1.80;91.90;;;;;;5135643;28;20027;-73
2022/12/17 20:29:02;;;;;;;26.83;8.75;;;-1.80;92.00;;;;;;5135619;28;20047;-73
2022/12/17 20:31:28;;;;;;;26.33;9.68;;;-1.70;92.30;;;;;;5117791;28;20045;-73
2022/12/17 20:33:53;;;;;;;40.47;12.88;;;-1.70;91.90;;;;;;5135499;28;20023;-73
2022/12/17 20:36:20;;;;;;;37.50;9.95;;;-1.70;91.80;;;;;;5134487;28;20028;-73
2022/12/17 20:38:46;;;;;;;24.33;11.15;;;-1.70;91.90;;;;;;5134524;28;20055;-73
2022/12/17 20:41:15;;;;;;;18.48;7.75;;;-1.70;91.90;;;;;;5135510;28;20031;-73
2022/12/17 20:43:41;;;;;;;20.05;8.93;;;-1.70;91.80;;;;;;5135337;28;20469;-73
2022/12/17 20:46:11;;;;;;;29.50;9.25;;;-1.70;91.80;;;;;;5135200;28;20024;-73
2022/12/17 20:48:38;;;;;;;38.92;11.32;;;-1.70;91.80;;;;;;5135244;28;20016;-73
2022/12/17 20:51:06;;;;;;;35.97;11.85;;;-1.70;91.80;;;;;;5134329;28;20019;-73
2022/12/17 20:53:34;;;;;;;33.83;11.27;;;-1.70;91.80;;;;;;5135127;28;20068;-73
2022/12/17 20:56:03;;;;;;;19.17;7.65;;;-1.60;91.80;;;;;;5135060;28;20031;-73
2022/12/17 20:58:29;;;;;;;29.90;10.82;;;-1.60;91.60;;;;;;5134969;28;20039;-73
2022/12/17 21:01:04;;;;;;;39.00;12.30;;;-1.60;91.40;;;;;;5134981;28;20043;-73
2022/12/17 21:03:31;;;;;;;37.25;9.27;;;-1.60;91.40;;;;;;5134907;28;20015;-73
2022/12/17 21:06:06;;;;;;;27.30;9.90;;;-1.60;91.40;;;;;;5116996;28;20107;-74
2022/12/17 21:08:31;;;;;;;18.42;8.00;;;-1.70;91.30;;;;;;5134745;28;20035;-73
2022/12/17 21:10:57;;;;;;;24.85;9.23;;;-1.70;91.30;;;;;;5134811;28;20023;-73
2022/12/17 21:13:29;;;;;;;34.38;12.65;;;-1.70;91.30;;;;;;5133714;28;20028;-73
2022/12/17 21:16:03;;;;;;;18.10;5.55;;;-1.70;91.30;;;;;;5134885;28;20028;-73
2022/12/17 21:18:30;;;;;;;22.55;8.65;;;-1.70;91.30;;;;;;5134743;28;20019;-73
2022/12/17 21:21:05;;;;;;;16.48;8.00;;;-1.70;91.20;;;;;;5134639;28;20012;-73
2022/12/17 21:23:33;;;;;;;27.60;10.90;;;-1.80;91.30;;;;;;5133619;28;20544;-73
2022/12/17 21:26:08;;;;;;;31.20;11.07;;;-1.80;91.30;;;;;;5133601;28;20086;-73
2022/12/17 21:28:35;;;;;;;25.58;10.43;;;-1.80;91.40;;;;;;5134669;28;20016;-73
2022/12/17 21:31:02;;;;;;;26.08;10.90;;;-1.80;91.20;;;;;;5134461;28;20047;-73
2022/12/17 21:33:28;;;;;;;24.08;9.13;;;-1.80;91.20;;;;;;5134377;28;20027;-73
2022/12/17 21:36:04;;;;;;;20.67;8.45;;;-1.90;91.10;;;;;;5133412;28;20114;-73
2022/12/17 21:38:30;;;;;;;30.20;11.95;;;-1.90;91.20;;;;;;5134354;28;20031;-73
2022/12/17 21:41:08;;;;;;;30.10;8.93;;;-1.90;91.30;;;;;;5134317;28;20042;-73
2022/12/17 21:43:35;;;;;;;34.85;12.40;;;-1.90;91.30;;;;;;5134223;28;20106;-73
2022/12/17 21:46:02;;;;;;;38.88;12.93;;;-1.90;91.40;;;;;;5134182;28;20057;-73
2022/12/17 21:48:27;;;;;;;31.73;10.73;;;-1.80;91.80;;;;;;5134164;28;20019;-73
2022/12/17 21:50:53;;;;;;;19.83;8.90;;;-1.80;91.40;;;;;;5133292;28;20075;-73
2022/12/17 21:53:19;;;;;;;38.53;12.27;;;-1.80;91.30;;;;;;5133044;28;20026;-73
2022/12/17 21:55:44;;;;;;;27.08;11.35;;;-1.80;91.30;;;;;;5134090;28;20049;-73
2022/12/17 21:58:10;;;;;;;35.15;12.75;;;-1.80;91.30;;;;;;5133201;28;20031;-73
2022/12/17 22:00:36;;;;;;;31.45;10.43;;;-1.70;91.30;;;;;;5132974;28;20490;-73
2022/12/17 22:03:01;;;;;;;35.47;11.60;;;-1.70;91.20;;;;;;5133926;28;20036;-73
2022/12/17 22:05:27;;;;;;;37.58;12.88;;;-1.60;91.10;;;;;;5134034;28;20032;-73
2022/12/17 22:07:53;;;;;;;41.63;13.40;;;-1.60;91.10;;;;;;5133602;28;20083;-73
2022/12/17 22:10:19;;;;;;;38.65;12.85;;;-1.60;90.90;;;;;;5133975;28;20020;-73
2022/12/17 22:15:30;;;;;;;48.08;14.25;;;-1.70;90.70;;;;;;5134013;28;20043;-73
2022/12/17 22:17:55;;;;;;;46.65;13.48;;;-1.70;90.80;;;;;;5133814;28;20079;-73
2022/12/17 22:20:22;;;;;;;35.00;12.40;;;-1.70;90.80;;;;;;5133804;28;20038;-73
2022/12/17 22:22:48;;;;;;;37.10;13.32;;;-1.70;90.80;;;;;;5133846;28;20027;-73
2022/12/17 22:25:14;;;;;;;36.17;10.45;;;-1.70;90.70;;;;;;5132767;28;20031;-73
2022/12/17 22:27:40;;;;;;;41.90;14.85;;;-1.70;90.70;;;;;;5132661;28;20024;-73
2022/12/17 22:33:04;;;;;;;38.97;13.35;;;-1.70;90.40;;;;;;5133752;28;20027;-73
2022/12/17 22:35:37;;;;;;;39.78;14.38;;;-1.80;90.40;;;;;;5132733;28;20077;-73
2022/12/17 22:38:05;;;;;;;36.35;12.07;;;-1.80;90.80;;;;;;5133682;28;20035;-73
2022/12/17 22:40:34;;;;;;;42.72;13.57;;;-1.80;90.50;;;;;;5133659;28;20051;-73
2022/12/17 22:45:45;;;;;;;42.17;14.63;;;-1.70;90.40;;;;;;5133760;28;20039;-73
2022/12/17 22:48:11;;;;;;;36.97;13.05;;;-1.70;90.30;;;;;;5133533;28;20028;-73
2022/12/17 22:50:37;;;;;;;33.95;13.45;;;-1.70;90.20;;;;;;5133602;28;20020;-73
2022/12/17 22:53:04;;;;;;;37.63;12.65;;;-1.70;90.30;;;;;;5133524;28;20032;-73
2022/12/17 22:55:30;;;;;;;40.10;13.82;;;-1.70;90.20;;;;;;5132477;28;20061;-73
2022/12/17 22:57:56;;;;;;;40.33;13.45;;;-1.70;90.00;;;;;;5132444;28;20049;-73
2022/12/17 23:00:28;;;;;;;32.55;11.98;;;-1.70;89.90;;;;;;5133632;28;20044;-73
2022/12/17 23:02:54;;;;;;;30.58;12.40;;;-1.70;89.90;;;;;;5133495;28;20028;-73
2022/12/17 23:05:22;;;;;;;32.42;12.45;;;-1.70;89.20;;;;;;5133395;28;20035;-72
2022/12/17 23:07:48;;;;;;;34.58;12.02;;;-1.70;89.00;;;;;;5133060;28;20051;-72
2022/12/17 23:10:14;;;;;;;40.42;14.23;;;-1.80;88.90;;;;;;5133383;28;20027;-73
2022/12/17 23:12:49;;;;;;;31.20;11.65;;;-1.80;88.70;;;;;;5132343;28;20035;-73
2022/12/17 23:15:24;;;;;;;39.55;13.15;;;-1.80;88.80;;;;;;5136163;28;20054;-73
2022/12/17 23:17:51;;;;;;;28.95;10.43;;;-1.80;89.00;;;;;;5137076;28;20114;-72
2022/12/17 23:20:17;;;;;;;30.65;11.93;;;-1.90;88.70;;;;;;5135947;28;20027;-72
2022/12/17 23:22:43;;;;;;;31.67;12.02;;;-2.00;88.80;;;;;;5136917;28;20035;-72
2022/12/17 23:25:08;;;;;;;26.42;10.48;;;-2.00;88.40;;;;;;5136874;28;20038;-72
2022/12/17 23:27:34;;;;;;;34.53;11.25;;;-2.00;88.30;;;;;;5136697;28;20036;-72
2022/12/17 23:30:01;;;;;;;36.60;13.45;;;-2.00;88.20;;;;;;5136786;28;20044;-72
2022/12/17 23:32:26;;;;;;;29.58;12.50;;;-2.10;87.10;;;;;;5135820;28;20110;-72
2022/12/17 23:34:52;;;;;;;35.15;13.15;;;-2.10;87.90;;;;;;5118642;28;20020;-72
2022/12/17 23:37:18;;;;;;;33.05;12.15;;;-2.10;88.00;;;;;;5135669;28;20066;-72
2022/12/17 23:39:43;;;;;;;30.52;12.75;;;-2.10;88.10;;;;;;5118630;28;20047;-72
2022/12/17 23:42:09;;;;;;;40.30;12.80;;;-2.10;88.20;;;;;;5136584;28;20054;-72
2022/12/17 23:44:34;;;;;;;29.30;11.80;;;-2.10;87.80;;;;;;5136506;28;20036;-72
2022/12/17 23:47:00;;;;;;;31.75;13.02;;;-2.10;87.50;;;;;;5135511;28;20047;-72
2022/12/17 23:49:25;;;;;;;27.63;12.15;;;-2.10;87.50;;;;;;5135447;28;20028;-72
2022/12/17 23:51:51;;;;;;;28.20;12.52;;;-2.00;87.70;;;;;;5136490;28;20028;-72
2022/12/17 23:54:17;;;;;;;35.65;12.65;;;-2.00;87.40;;;;;;5136442;28;20047;-73
2022/12/17 23:56:44;;;;;;;36.17;11.38;;;-2.00;87.70;;;;;;5136368;28;20091;-72
2022/12/17 23:59:09;;;;;;;38.65;13.27;;;-2.00;87.40;;;;;;5135523;28;20053;-72
